createdAt,value
2018-06-20T00:01:13.638Z,19.60
2018-06-20T00:06:10.185Z,19.60
2018-06-20T00:08:43.989Z,19.60
2018-06-20T00:11:12.419Z,19.60
2018-06-20T00:13:40.839Z,19.60
2018-06-20T00:16:09.243Z,19.60
2018-06-20T00:18:37.749Z,19.60
2018-06-20T00:21:06.274Z,19.50
2018-06-20T00:23:34.710Z,19.50
2018-06-20T00:26:03.198Z,19.50
2018-06-20T00:28:31.717Z,19.50
2018-06-20T00:31:00.397Z,19.50
2018-06-20T00:33:28.883Z,19.40
2018-06-20T00:35:57.407Z,19.40
2018-06-20T00:38:25.815Z,19.40
2018-06-20T00:40:54.219Z,19.40
2018-06-20T00:43:22.696Z,19.40
2018-06-20T00:45:51.232Z,19.40
2018-06-20T00:48:19.686Z,19.40
2018-06-20T00:50:48.096Z,19.30
2018-06-20T00:53:16.565Z,19.30
2018-06-20T00:55:56.166Z,19.30
2018-06-20T00:58:24.660Z,19.30
2018-06-20T01:00:53.065Z,19.30
2018-06-20T01:03:21.487Z,19.30
2018-06-20T01:05:49.964Z,19.30
2018-06-20T01:08:18.404Z,19.30
2018-06-20T01:10:46.837Z,19.30
2018-06-20T01:13:15.277Z,19.30
2018-06-20T01:15:43.792Z,19.20
2018-06-20T01:18:12.215Z,19.20
2018-06-20T01:20:40.647Z,19.10
2018-06-20T01:23:09.165Z,19.10
2018-06-20T01:25:37.591Z,19.10
2018-06-20T01:28:10.215Z,19.10
2018-06-20T01:30:38.631Z,19.00
2018-06-20T01:33:07.135Z,18.90
2018-06-20T01:35:35.541Z,18.90
2018-06-20T01:38:03.975Z,19.00
2018-06-20T01:40:32.411Z,18.90
2018-06-20T01:43:00.819Z,18.90
2018-06-20T01:45:29.233Z,18.90
2018-06-20T01:47:57.631Z,18.90
2018-06-20T01:50:28.043Z,18.90
2018-06-20T01:52:56.607Z,18.90
2018-06-20T01:55:25.090Z,18.90
2018-06-20T01:57:53.530Z,18.90
2018-06-20T02:00:22.828Z,18.90
2018-06-20T02:02:51.309Z,18.90
2018-06-20T02:05:19.884Z,18.90
2018-06-20T02:07:48.699Z,18.90
2018-06-20T02:10:17.470Z,18.90
2018-06-20T02:12:45.912Z,18.90
2018-06-20T02:15:14.927Z,18.90
2018-06-20T02:17:43.492Z,18.90
2018-06-20T02:20:11.932Z,18.90
2018-06-20T02:22:40.391Z,18.90
2018-06-20T02:25:08.803Z,18.90
2018-06-20T02:27:37.351Z,18.90
2018-06-20T02:30:06.009Z,18.90
2018-06-20T02:32:34.874Z,18.90
2018-06-20T02:35:03.340Z,18.90
2018-06-20T02:37:31.787Z,18.80
2018-06-20T02:40:00.246Z,18.80
2018-06-20T02:42:28.631Z,18.80
2018-06-20T02:44:57.013Z,18.80
2018-06-20T02:47:42.231Z,18.80
2018-06-20T02:50:11.769Z,18.80
2018-06-20T02:52:40.502Z,18.80
2018-06-20T02:57:37.304Z,18.80
2018-06-20T03:00:07.361Z,18.90
2018-06-20T03:02:35.776Z,18.90
2018-06-20T03:05:04.440Z,18.90
2018-06-20T03:07:32.901Z,18.90
2018-06-20T03:10:01.340Z,18.90
2018-06-20T03:12:29.774Z,18.90
2018-06-20T03:14:58.169Z,18.90
2018-06-20T03:17:26.657Z,18.90
2018-06-20T03:19:55.072Z,19.00
2018-06-20T03:22:23.506Z,19.00
2018-06-20T03:24:51.950Z,19.00
2018-06-20T03:27:20.464Z,19.00
2018-06-20T03:29:48.850Z,19.00
2018-06-20T03:32:17.237Z,19.10
2018-06-20T03:34:45.736Z,19.00
2018-06-20T03:37:14.153Z,19.00
2018-06-20T03:39:42.566Z,19.00
2018-06-20T03:42:10.985Z,18.90
2018-06-20T03:44:39.380Z,18.90
2018-06-20T03:47:07.821Z,18.90
2018-06-20T03:49:36.253Z,18.90
2018-06-20T03:52:04.665Z,18.80
2018-06-20T03:54:33.133Z,18.80
2018-06-20T03:57:01.581Z,18.70
2018-06-20T03:59:30.029Z,18.70
2018-06-20T04:01:58.488Z,18.70
2018-06-20T04:04:26.982Z,18.80
2018-06-20T04:06:55.415Z,18.80
2018-06-20T04:09:23.839Z,18.80
2018-06-20T04:11:52.271Z,18.70
2018-06-20T04:14:20.657Z,18.70
2018-06-20T04:16:49.113Z,18.70
2018-06-20T04:19:17.501Z,18.80
2018-06-20T04:21:45.912Z,18.80
2018-06-20T04:24:14.341Z,18.80
2018-06-20T04:26:42.745Z,18.90
2018-06-20T04:29:11.165Z,19.00
2018-06-20T04:31:39.787Z,19.00
2018-06-20T04:34:08.254Z,19.00
2018-06-20T04:36:36.729Z,19.10
2018-06-20T04:39:08.129Z,19.10
2018-06-20T04:41:36.523Z,19.10
2018-06-20T04:44:04.925Z,19.20
2018-06-20T04:46:33.370Z,19.20
2018-06-20T04:49:01.780Z,19.20
2018-06-20T04:51:30.311Z,19.20
2018-06-20T04:53:58.744Z,19.20
2018-06-20T04:56:27.196Z,19.20
2018-06-20T04:58:55.602Z,19.20
2018-06-20T05:01:25.031Z,19.20
2018-06-20T05:03:53.430Z,19.20
2018-06-20T05:06:22.107Z,19.20
2018-06-20T05:08:50.558Z,19.20
2018-06-20T05:11:19.047Z,19.20
2018-06-20T05:13:47.629Z,19.20
2018-06-20T05:16:16.075Z,19.20
2018-06-20T05:18:44.495Z,19.30
2018-06-20T05:21:12.959Z,19.30
2018-06-20T05:23:41.377Z,19.30
2018-06-20T05:26:09.993Z,19.40
2018-06-20T05:28:38.539Z,19.40
2018-06-20T05:31:08.243Z,19.40
2018-06-20T05:33:36.781Z,19.50
2018-06-20T05:36:05.303Z,19.50
2018-06-20T05:38:33.735Z,19.60
2018-06-20T05:41:02.131Z,19.60
2018-06-20T05:43:30.501Z,19.70
2018-06-20T05:45:59.092Z,19.70
2018-06-20T05:48:27.546Z,19.80
2018-06-20T05:50:55.993Z,19.90
2018-06-20T05:53:24.417Z,19.90
2018-06-20T05:55:52.969Z,19.90
2018-06-20T05:58:21.448Z,20.00
2018-06-20T06:00:49.852Z,20.00
2018-06-20T06:03:18.284Z,20.10
2018-06-20T06:06:02.117Z,20.20
2018-06-20T06:08:30.551Z,20.30
2018-06-20T06:10:59.079Z,20.40
2018-06-20T06:13:27.535Z,20.60
2018-06-20T06:15:55.954Z,20.60
2018-06-20T06:18:24.412Z,20.70
2018-06-20T06:20:52.870Z,20.90
2018-06-20T06:23:21.302Z,21.10
2018-06-20T06:25:49.807Z,21.30
2018-06-20T06:28:18.353Z,21.40
2018-06-20T06:30:46.741Z,21.40
2018-06-20T06:33:15.187Z,21.40
2018-06-20T06:35:43.575Z,21.40
2018-06-20T06:38:11.994Z,21.60
2018-06-20T06:40:40.534Z,21.60
2018-06-20T06:43:09.059Z,21.90
2018-06-20T06:45:37.507Z,22.20
2018-06-20T06:48:06.141Z,22.30
2018-06-20T06:50:35.019Z,22.60
2018-06-20T06:53:03.434Z,22.80
2018-06-20T06:55:31.984Z,22.80
2018-06-20T06:58:00.640Z,23.00
2018-06-20T07:00:29.222Z,23.40
2018-06-20T07:02:57.604Z,24.00
2018-06-20T07:05:26.126Z,24.70
2018-06-20T07:07:54.532Z,25.30
2018-06-20T07:10:22.984Z,25.70
2018-06-20T07:12:51.404Z,26.10
2018-06-20T07:15:20.121Z,26.40
2018-06-20T07:17:48.690Z,26.50
2018-06-20T07:20:17.131Z,26.50
2018-06-20T07:22:45.739Z,26.30
2018-06-20T07:25:14.187Z,26.50
2018-06-20T07:27:42.601Z,26.10
2018-06-20T07:30:11.115Z,25.50
2018-06-20T07:32:39.505Z,25.10
2018-06-20T07:35:07.947Z,24.60
2018-06-20T07:37:36.355Z,24.20
2018-06-20T07:40:04.921Z,24.00
2018-06-20T07:42:33.328Z,24.30
2018-06-20T07:45:01.793Z,24.60
2018-06-20T07:47:30.131Z,24.90
2018-06-20T07:49:58.601Z,24.90
2018-06-20T07:52:27.215Z,24.80
2018-06-20T07:54:55.624Z,25.10
2018-06-20T07:57:24.076Z,25.80
2018-06-20T07:59:57.897Z,26.60
2018-06-20T08:02:43.085Z,26.70
2018-06-20T08:05:17.140Z,26.70
2018-06-20T08:07:50.944Z,26.50
2018-06-20T08:10:27.866Z,26.60
2018-06-20T08:13:01.735Z,26.70
2018-06-20T08:15:35.767Z,26.10
2018-06-20T08:18:09.588Z,25.90
2018-06-20T08:23:06.413Z,26.00
2018-06-20T08:25:34.854Z,26.30
2018-06-20T08:28:03.282Z,26.40
2018-06-20T08:30:32.187Z,26.10
2018-06-20T08:33:00.568Z,26.30
2018-06-20T08:38:00.355Z,26.60
2018-06-20T08:40:28.955Z,26.90
2018-06-20T08:42:57.359Z,27.20
2018-06-20T08:45:25.912Z,27.60
2018-06-20T08:47:54.365Z,27.80
2018-06-20T08:50:23.267Z,28.10
2018-06-20T08:52:51.744Z,27.80
2018-06-20T08:55:20.196Z,27.60
2018-06-20T08:57:48.601Z,27.50
2018-06-20T09:00:22.308Z,27.50
2018-06-20T09:02:50.762Z,27.70
2018-06-20T09:05:24.568Z,28.00
2018-06-20T09:07:58.494Z,28.50
2018-06-20T09:10:32.361Z,29.00
2018-06-20T09:13:06.827Z,28.80
2018-06-20T09:15:40.571Z,28.20
2018-06-20T09:18:14.383Z,27.60
2018-06-20T09:23:10.959Z,27.10
2018-06-20T09:25:39.479Z,26.80
2018-06-20T09:28:08.064Z,26.70
2018-06-20T09:30:36.505Z,27.00
2018-06-20T09:33:05.069Z,27.50
2018-06-20T09:35:33.693Z,27.90
2018-06-20T09:38:08.341Z,27.60
2018-06-20T09:40:36.773Z,27.50
2018-06-20T09:43:05.357Z,27.70
2018-06-20T09:45:34.091Z,28.20
2018-06-20T09:48:02.571Z,28.10
2018-06-20T09:50:36.367Z,28.50
2018-06-20T09:53:04.909Z,28.70
2018-06-20T09:55:33.311Z,28.50
2018-06-20T09:58:01.893Z,28.50
2018-06-20T10:00:35.644Z,28.30
2018-06-20T10:03:09.293Z,28.60
2018-06-20T10:05:43.121Z,28.20
2018-06-20T10:08:16.936Z,28.40
2018-06-20T10:10:46.941Z,29.10
2018-06-20T10:13:16.723Z,29.60
2018-06-20T10:15:45.302Z,29.60
2018-06-20T10:18:13.956Z,29.40
2018-06-20T10:20:42.371Z,29.30
2018-06-20T10:23:10.888Z,28.80
2018-06-20T10:25:39.348Z,28.20
2018-06-20T10:28:07.812Z,28.20
2018-06-20T10:30:36.360Z,28.70
2018-06-20T10:33:05.124Z,28.80
2018-06-20T10:35:33.560Z,29.10
2018-06-20T10:38:02.004Z,29.20
2018-06-20T10:42:58.610Z,29.70
2018-06-20T10:45:32.428Z,29.80
2018-06-20T10:48:03.578Z,29.30
2018-06-20T10:50:31.992Z,28.90
2018-06-20T10:53:00.420Z,28.60
2018-06-20T10:55:29.023Z,28.10
2018-06-20T10:58:02.859Z,27.70
2018-06-20T11:00:36.713Z,28.20
2018-06-20T11:03:10.556Z,28.20
2018-06-20T11:05:44.351Z,28.30
2018-06-20T11:08:18.130Z,28.40
2018-06-20T11:11:53.720Z,28.50
2018-06-20T11:14:22.345Z,28.60
2018-06-20T11:16:53.303Z,28.60
2018-06-20T11:19:21.707Z,28.50
2018-06-20T11:21:50.210Z,28.50
2018-06-20T11:24:18.631Z,28.60
2018-06-20T11:26:47.211Z,28.70
2018-06-20T11:29:15.731Z,28.70
2018-06-20T11:31:44.234Z,28.60
2018-06-20T11:34:12.910Z,28.60
2018-06-20T11:36:41.376Z,28.30
2018-06-20T11:39:11.699Z,27.90
2018-06-20T11:41:40.691Z,27.90
2018-06-20T11:44:09.166Z,27.80
2018-06-20T11:46:42.984Z,27.70
2018-06-20T11:49:11.429Z,27.90
2018-06-20T11:51:42.901Z,28.30
2018-06-20T11:54:12.384Z,28.50
2018-06-20T11:56:41.348Z,28.40
2018-06-20T11:59:15.015Z,28.70
2018-06-20T12:01:48.838Z,28.90
2018-06-20T12:04:22.646Z,28.80
2018-06-20T12:06:56.400Z,28.50
2018-06-20T12:09:30.377Z,28.30
2018-06-20T12:12:04.321Z,28.20
2018-06-20T12:14:38.120Z,27.80
2018-06-20T12:17:10.751Z,27.80
2018-06-20T12:19:45.097Z,28.00
2018-06-20T12:22:19.295Z,28.10
2018-06-20T12:24:53.168Z,28.10
2018-06-20T12:27:27.029Z,28.10
2018-06-20T12:30:00.912Z,28.10
2018-06-20T12:32:34.783Z,28.10
2018-06-20T12:35:08.584Z,28.20
2018-06-20T12:37:42.372Z,28.20
2018-06-20T12:40:13.740Z,28.20
2018-06-20T12:42:47.619Z,28.10
2018-06-20T12:45:18.596Z,28.10
2018-06-20T12:47:51.524Z,28.10
2018-06-20T12:50:23.645Z,27.90
2018-06-20T12:52:52.346Z,28.00
2018-06-20T12:55:20.817Z,27.90
2018-06-20T13:00:17.353Z,27.90
2018-06-20T13:02:46.535Z,28.00
2018-06-20T13:05:15.469Z,28.00
2018-06-20T13:07:43.943Z,28.10
2018-06-20T13:10:12.500Z,28.20
2018-06-20T13:12:42.390Z,28.20
2018-06-20T13:15:10.930Z,28.20
2018-06-20T13:17:40.489Z,28.30
2018-06-20T13:20:09.235Z,28.30
2018-06-20T13:22:37.565Z,28.20
2018-06-20T13:25:07.088Z,28.20
2018-06-20T13:27:41.575Z,28.20
2018-06-20T13:30:10.945Z,28.10
2018-06-20T13:32:44.648Z,28.20
2018-06-20T13:35:18.462Z,28.30
2018-06-20T13:37:52.387Z,28.30
2018-06-20T13:40:26.326Z,28.10
2018-06-20T13:44:07.481Z,27.90
2018-06-20T13:46:41.284Z,27.90
2018-06-20T13:49:09.749Z,27.80
2018-06-20T13:51:38.203Z,27.70
2018-06-20T13:54:06.750Z,27.80
2018-06-20T13:56:35.257Z,27.90
2018-06-20T13:59:03.695Z,28.00
2018-06-20T14:01:32.123Z,28.10
2018-06-20T14:04:00.613Z,28.10
2018-06-20T14:06:29.134Z,28.20
2018-06-20T14:08:58.452Z,28.30
2018-06-20T14:11:26.897Z,28.40
2018-06-20T14:13:55.267Z,28.40
2018-06-20T14:16:23.705Z,28.60
2018-06-20T14:18:52.173Z,28.70
2018-06-20T14:21:26.094Z,28.80
2018-06-20T14:23:54.459Z,28.80
2018-06-20T14:26:23.329Z,28.80
2018-06-20T14:28:51.855Z,28.80
2018-06-20T14:31:25.538Z,28.90
2018-06-20T14:33:59.194Z,28.70
2018-06-20T14:36:33.078Z,28.30
2018-06-20T14:39:06.947Z,28.10
2018-06-20T14:41:40.737Z,28.00
2018-06-20T14:44:16.529Z,27.80
2018-06-20T14:46:44.991Z,28.00
2018-06-20T14:49:13.409Z,28.10
2018-06-20T14:51:41.950Z,28.00
2018-06-20T14:54:10.385Z,27.90
2018-06-20T14:56:39.817Z,27.80
2018-06-20T14:59:08.389Z,27.80
2018-06-20T15:01:36.919Z,27.60
2018-06-20T15:04:05.510Z,27.60
2018-06-20T15:06:33.942Z,27.50
2018-06-20T15:09:02.393Z,27.40
2018-06-20T15:11:30.924Z,27.30
2018-06-20T15:13:59.433Z,27.40
2018-06-20T15:16:33.273Z,27.60
2018-06-20T15:19:02.400Z,27.80
2018-06-20T15:21:31.479Z,27.90
2018-06-20T15:24:00.279Z,28.00
2018-06-20T15:26:34.943Z,28.10
2018-06-20T15:29:09.745Z,28.10
2018-06-20T15:31:43.457Z,28.20
2018-06-20T15:34:17.142Z,28.20
2018-06-20T15:37:51.656Z,28.30
2018-06-20T15:40:20.098Z,28.30
2018-06-20T15:42:49.001Z,28.20
2018-06-20T15:45:20.105Z,28.20
2018-06-20T15:47:48.631Z,28.10
2018-06-20T15:50:17.029Z,28.10
2018-06-20T15:52:45.431Z,28.10
2018-06-20T15:55:13.837Z,28.10
2018-06-20T15:57:42.329Z,28.10
2018-06-20T16:00:10.897Z,28.10
2018-06-20T16:02:39.610Z,28.10
2018-06-20T16:05:08.027Z,28.00
2018-06-20T16:07:37.323Z,27.90
2018-06-20T16:10:06.907Z,27.90
2018-06-20T16:12:35.353Z,27.90
2018-06-20T16:15:03.869Z,27.90
2018-06-20T16:17:32.316Z,27.80
2018-06-20T16:20:06.031Z,27.80
2018-06-20T16:22:39.791Z,27.80
2018-06-20T16:25:13.626Z,27.80
2018-06-20T16:27:47.449Z,27.80
2018-06-20T16:30:21.143Z,27.70
2018-06-20T16:32:49.844Z,27.70
2018-06-20T16:35:18.251Z,27.60
2018-06-20T16:37:46.680Z,27.60
2018-06-20T16:40:15.259Z,27.60
2018-06-20T16:42:43.646Z,27.60
2018-06-20T16:45:12.661Z,27.60
2018-06-20T16:47:42.458Z,27.60
2018-06-20T16:50:12.493Z,27.50
2018-06-20T16:52:40.941Z,27.50
2018-06-20T16:55:09.356Z,27.50
2018-06-20T16:57:37.816Z,27.50
2018-06-20T17:00:06.713Z,27.50
2018-06-20T17:02:38.149Z,27.40
2018-06-20T17:05:07.271Z,27.50
2018-06-20T17:07:35.951Z,27.40
2018-06-20T17:10:04.770Z,27.40
2018-06-20T17:12:38.727Z,27.40
2018-06-20T17:15:12.631Z,27.30
2018-06-20T17:17:46.461Z,27.30
2018-06-20T17:20:20.385Z,27.20
2018-06-20T17:25:24.975Z,27.20
2018-06-20T17:27:53.433Z,27.10
2018-06-20T17:30:21.880Z,27.10
2018-06-20T17:32:50.447Z,27.10
2018-06-20T17:35:18.911Z,27.00
2018-06-20T17:37:47.379Z,27.00
2018-06-20T17:40:16.075Z,27.00
2018-06-20T17:42:44.530Z,26.90
2018-06-20T17:45:13.256Z,26.90
2018-06-20T17:47:41.674Z,26.90
2018-06-20T17:50:11.501Z,26.90
2018-06-20T17:52:40.211Z,26.90
2018-06-20T17:55:09.807Z,26.80
2018-06-20T17:57:38.322Z,26.80
2018-06-20T18:00:07.014Z,26.80
2018-06-20T18:02:35.532Z,26.80
2018-06-20T18:05:09.434Z,26.70
2018-06-20T18:07:44.955Z,26.70
2018-06-20T18:10:18.838Z,26.60
2018-06-20T18:12:53.297Z,26.50
2018-06-20T18:15:27.493Z,26.50
2018-06-20T18:17:57.588Z,26.50
2018-06-20T18:20:26.004Z,26.50
2018-06-20T18:22:54.432Z,26.40
2018-06-20T18:25:22.869Z,26.40
2018-06-20T18:27:52.358Z,26.40
2018-06-20T18:30:20.787Z,26.40
2018-06-20T18:32:49.200Z,26.30
2018-06-20T18:35:18.533Z,26.30
2018-06-20T18:37:48.590Z,26.30
2018-06-20T18:40:17.080Z,26.20
2018-06-20T18:42:45.575Z,26.20
2018-06-20T18:45:18.563Z,26.10
2018-06-20T18:47:52.381Z,26.00
2018-06-20T18:50:20.911Z,25.90
2018-06-20T18:52:50.792Z,25.90
2018-06-20T18:55:19.221Z,25.80
2018-06-20T18:57:53.227Z,25.70
2018-06-20T19:00:27.257Z,25.70
2018-06-20T19:03:01.348Z,25.60
2018-06-20T19:05:35.350Z,25.60
2018-06-20T19:08:09.230Z,25.60
2018-06-20T19:10:37.898Z,25.50
2018-06-20T19:13:08.609Z,25.50
2018-06-20T19:15:37.097Z,25.40
2018-06-20T19:18:09.407Z,25.40
2018-06-20T19:20:39.283Z,25.40
2018-06-20T19:23:07.700Z,25.20
2018-06-20T19:25:36.673Z,25.20
2018-06-20T19:28:05.127Z,25.20
2018-06-20T19:30:33.557Z,25.10
2018-06-20T19:33:01.996Z,25.10
2018-06-20T19:35:30.607Z,25.10
2018-06-20T19:38:01.589Z,25.00
2018-06-20T19:40:30.086Z,25.00
2018-06-20T19:42:58.657Z,24.90
2018-06-20T19:45:29.015Z,24.90
2018-06-20T19:47:57.573Z,24.80
2018-06-20T19:50:26.887Z,24.70
2018-06-20T19:52:55.297Z,24.70
2018-06-20T19:55:23.707Z,24.60
2018-06-20T19:57:52.139Z,24.60
2018-06-20T20:00:20.625Z,24.50
2018-06-20T20:02:49.045Z,24.60
2018-06-20T20:05:17.537Z,24.50
2018-06-20T20:07:45.957Z,24.50
2018-06-20T20:10:15.011Z,24.40
2018-06-20T20:12:43.561Z,24.40
2018-06-20T20:15:12.063Z,24.30
2018-06-20T20:17:40.998Z,24.30
2018-06-20T20:20:09.652Z,24.30
2018-06-20T20:22:38.079Z,24.30
2018-06-20T20:25:06.793Z,24.30
2018-06-20T20:27:35.245Z,24.20
2018-06-20T20:30:03.889Z,24.20
2018-06-20T20:32:32.291Z,24.10
2018-06-20T20:35:00.997Z,24.10
2018-06-20T20:37:29.465Z,24.10
2018-06-20T20:39:58.024Z,24.00
2018-06-20T20:42:27.048Z,24.00
2018-06-20T20:44:55.445Z,23.90
2018-06-20T20:47:23.856Z,24.00
2018-06-20T20:49:52.272Z,23.90
2018-06-20T20:52:20.812Z,23.90
2018-06-20T20:54:49.366Z,23.90
2018-06-20T20:57:17.840Z,23.80
2018-06-20T20:59:47.418Z,23.90
2018-06-20T21:02:15.974Z,23.90
2018-06-20T21:04:44.862Z,23.80
2018-06-20T21:07:13.324Z,23.70
2018-06-20T21:09:41.726Z,23.60
2018-06-20T21:12:10.173Z,23.60
2018-06-20T21:14:38.904Z,23.50
2018-06-20T21:17:07.393Z,23.50
2018-06-20T21:19:35.829Z,23.40
2018-06-20T21:22:04.471Z,23.30
2018-06-20T21:24:32.914Z,23.30
2018-06-20T21:27:01.334Z,23.20
2018-06-20T21:29:29.815Z,23.20
2018-06-20T21:31:58.603Z,23.20
2018-06-20T21:34:27.083Z,23.20
2018-06-20T21:36:55.585Z,23.20
2018-06-20T21:39:24.066Z,23.20
2018-06-20T21:41:52.527Z,23.20
2018-06-20T21:44:20.989Z,23.20
2018-06-20T21:46:49.477Z,23.10
2018-06-20T21:49:17.969Z,23.00
2018-06-20T21:51:46.471Z,23.00
2018-06-20T21:54:15.699Z,23.00
2018-06-20T21:56:44.105Z,23.00
2018-06-20T21:59:12.524Z,23.00
2018-06-20T22:01:41.051Z,23.00
2018-06-20T22:04:09.619Z,23.00
2018-06-20T22:06:38.133Z,23.00
2018-06-20T22:09:08.520Z,23.00
2018-06-20T22:11:38.221Z,23.00
2018-06-20T22:14:09.094Z,23.00
2018-06-20T22:16:38.177Z,22.90
2018-06-20T22:19:06.617Z,22.90
2018-06-20T22:21:35.071Z,22.90
2018-06-20T22:24:03.521Z,22.90
2018-06-20T22:26:32.032Z,22.90
2018-06-20T22:29:00.486Z,22.90
2018-06-20T22:31:28.939Z,22.90
2018-06-20T22:33:57.573Z,22.80
2018-06-20T22:36:26.018Z,22.80
2018-06-20T22:38:54.489Z,22.80
2018-06-20T22:41:22.931Z,22.70
2018-06-20T22:43:51.355Z,22.70
2018-06-20T22:46:19.811Z,22.70
2018-06-20T22:48:48.269Z,22.60
2018-06-20T22:51:16.683Z,22.50
2018-06-20T22:53:45.155Z,22.50
2018-06-20T22:56:13.578Z,22.50
2018-06-20T22:58:41.961Z,22.50
2018-06-20T23:01:10.477Z,22.50
2018-06-20T23:03:38.867Z,22.50
2018-06-20T23:06:07.347Z,22.40
2018-06-20T23:08:35.831Z,22.40
2018-06-20T23:11:04.271Z,22.40
2018-06-20T23:13:32.680Z,22.30
2018-06-20T23:16:01.133Z,22.20
2018-06-20T23:18:29.647Z,22.10
2018-06-20T23:20:58.107Z,22.00
2018-06-20T23:23:26.600Z,21.80
2018-06-20T23:25:55.042Z,21.80
2018-06-20T23:28:23.473Z,21.70
2018-06-20T23:30:51.915Z,21.60
2018-06-20T23:33:20.331Z,21.60
2018-06-20T23:35:48.819Z,21.60
2018-06-20T23:38:17.215Z,21.60
2018-06-20T23:40:45.716Z,21.60
2018-06-20T23:43:14.235Z,21.80
2018-06-20T23:45:42.658Z,21.80
2018-06-20T23:48:11.056Z,21.80
2018-06-20T23:50:39.521Z,21.80
2018-06-20T23:53:07.975Z,21.70
2018-06-20T23:55:36.385Z,21.70
2018-06-20T23:58:04.939Z,21.70
